Terminal Aerodrome Forecast
Issued by NWS

Home | Current Version | Previous Version | Text Only | Print | Product List | Glossary On
Versions: 1 2 3 4 5 6 7 8 9 10 11 12
689
FTUS43 KICT 202322
TAFSLN
TAF
KSLN 202322Z 2100/2124 18024G32KT P6SM BKN110
     FM210400 18024G32KT P6SM BKN025
     FM211600 19022G29KT P6SM BKN015
     FM211700 21017G25KT P6SM SHRA VCTS BKN025CB
     FM212000 34018G23KT P6SM SCT050=

USA.gov is the U.S. government's official web portal to all federal, state and local government web resources and services.